Time;durP1;ratioP1;P1;durP2;ratioP2;P2;SDS_P1;SDS_P2;PMS_P1;PMS_P2;Temp;Humidity;BMP_temperature;BMP_pressure;BME280_temperature;BME280_humidity;BME280_pressure;Samples;Min_cycle;Max_cycle;Signal;HPM_P1;HPM_P2
2023/12/09 00:01:54;;;;;;;2.38;2.25;;;;;;;6.20;100.00;98408.91;4078928;29;20208;-44
2023/12/09 00:03:56;;;;;;;1.90;1.80;;;;;;;6.22;100.00;98405.97;4105903;28;20707;-46
2023/12/09 00:05:58;;;;;;;1.60;1.50;;;;;;;6.20;100.00;98408.06;4090861;28;20630;-45
2023/12/09 00:08:00;;;;;;;2.72;1.42;;;;;;;6.23;100.00;98408.44;4094939;28;20239;-45
2023/12/09 00:10:02;;;;;;;1.92;1.83;;;;;;;6.18;100.00;98404.75;4099032;28;20685;-46
2023/12/09 00:12:04;;;;;;;1.58;1.48;;;;;;;6.19;100.00;98417.28;4109992;28;20265;-45
2023/12/09 00:14:06;;;;;;;1.80;1.67;;;;;;;6.16;100.00;98421.25;4114117;28;20242;-45
2023/12/09 00:16:08;;;;;;;2.42;1.95;;;;;;;6.22;100.00;98419.56;4091253;28;20712;-45
2023/12/09 00:18:09;;;;;;;1.52;1.40;;;;;;;6.23;100.00;98413.06;4095200;28;20283;-47
2023/12/09 00:20:12;;;;;;;1.30;1.27;;;;;;;6.21;100.00;98416.00;4113173;28;20583;-45
2023/12/09 00:22:14;;;;;;;4.30;1.55;;;;;;;6.21;100.00;98421.44;4100461;28;20682;-45
2023/12/09 00:24:16;;;;;;;3.70;1.98;;;;;;;6.21;100.00;98415.16;4099855;28;20602;-45
2023/12/09 00:26:17;;;;;;;2.63;1.58;;;;;;;6.27;100.00;98419.69;4096450;28;20234;-45
2023/12/09 00:28:19;;;;;;;6.90;1.60;;;;;;;6.30;100.00;98419.25;4065347;29;20607;-46
2023/12/09 00:30:21;;;;;;;1.42;1.33;;;;;;;6.28;100.00;98415.94;4107032;28;20214;-46
2023/12/09 00:32:23;;;;;;;1.85;1.75;;;;;;;6.28;100.00;98410.50;4094591;28;20598;-46
2023/12/09 00:34:25;;;;;;;3.58;2.30;;;;;;;6.29;100.00;98412.97;4100637;28;20274;-46
2023/12/09 00:36:27;;;;;;;2.63;1.80;;;;;;;6.32;100.00;98417.13;4096260;28;20238;-46
2023/12/09 00:38:29;;;;;;;1.42;1.33;;;;;;;6.30;100.00;98414.63;4079297;28;20670;-45
2023/12/09 00:40:31;;;;;;;1.50;1.20;;;;;;;6.30;100.00;98421.97;4092380;28;20211;-47
2023/12/09 00:42:33;;;;;;;1.92;1.80;;;;;;;6.40;100.00;98414.13;4091610;28;20211;-44
2023/12/09 00:44:35;;;;;;;1.88;1.63;;;;;;;6.32;100.00;98428.00;4089806;28;20625;-46
2023/12/09 00:46:36;;;;;;;1.30;1.20;;;;;;;6.35;100.00;98424.84;4091442;28;20302;-46
2023/12/09 00:48:38;;;;;;;1.42;1.00;;;;;;;6.29;100.00;98418.41;4109819;28;20685;-47
2023/12/09 00:50:40;;;;;;;1.52;1.45;;;;;;;6.29;100.00;98428.47;4090935;28;20250;-45
2023/12/09 00:52:41;;;;;;;4.43;1.42;;;;;;;6.28;100.00;98427.63;4093385;28;20214;-46
2023/12/09 00:54:43;;;;;;;1.60;1.50;;;;;;;6.37;100.00;98434.41;4094197;28;20207;-47
2023/12/09 00:56:45;;;;;;;2.13;1.55;;;;;;;6.26;100.00;98448.75;4077660;29;20647;-46
2023/12/09 00:58:46;;;;;;;1.88;1.77;;;;;;;6.26;100.00;98442.50;4081726;29;20653;-45
2023/12/09 01:00:48;;;;;;;1.63;1.50;;;;;;;6.34;100.00;98432.16;4097692;28;20263;-45
2023/12/09 01:02:50;;;;;;;1.77;1.67;;;;;;;6.29;100.00;98433.91;4113703;28;20249;-45
2023/12/09 01:04:52;;;;;;;2.17;2.08;;;;;;;6.29;100.00;98439.34;4094334;28;20207;-46
2023/12/09 01:06:53;;;;;;;2.10;2.00;;;;;;;6.27;100.00;98441.44;4091564;28;20232;-45
2023/12/09 01:08:55;;;;;;;1.70;1.60;;;;;;;6.28;100.00;98432.25;4097103;28;20223;-47
2023/12/09 01:10:57;;;;;;;1.40;1.38;;;;;;;6.34;100.00;98442.19;4112504;28;20265;-46
2023/12/09 01:12:59;;;;;;;2.58;2.05;;;;;;;6.41;100.00;98443.78;4111697;28;20221;-47
2023/12/09 01:15:01;;;;;;;2.50;1.90;;;;;;;6.36;100.00;98445.53;4105339;28;20588;-46
2023/12/09 01:17:03;;;;;;;2.47;2.28;;;;;;;6.39;100.00;98450.50;4096776;28;20231;-45
2023/12/09 01:19:04;;;;;;;2.00;1.90;;;;;;;6.36;100.00;98450.97;4095734;28;20238;-45
2023/12/09 01:21:06;;;;;;;3.20;2.58;;;;;;;6.32;100.00;98460.63;4108178;28;20259;-47
2023/12/09 01:23:08;;;;;;;2.00;1.90;;;;;;;6.36;100.00;98461.84;4092048;28;20212;-45
2023/12/09 01:25:09;;;;;;;4.68;1.88;;;;;;;6.34;100.00;98455.78;4095668;28;20662;-46
2023/12/09 01:27:11;;;;;;;2.40;1.88;;;;;;;6.42;100.00;98440.00;4109009;28;20237;-47
2023/12/09 01:29:13;;;;;;;2.38;2.17;;;;;;;6.39;100.00;98445.06;4094609;28;20519;-47
2023/12/09 01:31:15;;;;;;;2.70;2.50;;;;;;;6.46;100.00;98443.09;4097077;28;20211;-45
2023/12/09 01:33:16;;;;;;;1.48;1.30;;;;;;;6.37;100.00;98441.75;4095507;28;20246;-46
2023/12/09 01:35:18;;;;;;;2.30;2.10;;;;;;;6.34;100.00;98442.19;4096267;28;20211;-45
2023/12/09 01:37:20;;;;;;;3.58;1.98;;;;;;;6.40;100.00;98452.16;4109629;28;20227;-46
2023/12/09 01:39:22;;;;;;;2.33;2.15;;;;;;;6.39;100.00;98453.22;4097073;28;20582;-46
2023/12/09 01:41:23;;;;;;;2.53;1.58;;;;;;;6.43;100.00;98451.72;4097022;28;20709;-45
2023/12/09 01:43:25;;;;;;;1.75;1.65;;;;;;;6.41;100.00;98448.38;4098833;28;20591;-45
2023/12/09 01:45:27;;;;;;;8.80;1.73;;;;;;;6.43;100.00;98457.16;4091111;28;20243;-45
2023/12/09 01:47:29;;;;;;;1.92;1.83;;;;;;;6.42;100.00;98452.78;4111367;28;20214;-45
2023/12/09 01:49:31;;;;;;;1.35;1.25;;;;;;;6.37;100.00;98464.31;4078005;29;20214;-46
2023/12/09 01:51:35;;;;;;;1.17;1.15;;;;;;;6.36;100.00;98449.06;4096639;28;20215;-46
2023/12/09 01:53:37;;;;;;;3.15;2.03;;;;;;;6.34;100.00;98458.50;4090961;28;20263;-45
2023/12/09 01:55:40;;;;;;;12.25;2.35;;;;;;;6.41;100.00;98448.38;4097687;28;20217;-46
2023/12/09 01:57:43;;;;;;;2.83;2.63;;;;;;;6.40;100.00;98457.59;4094137;28;20211;-47
2023/12/09 01:59:44;;;;;;;2.55;2.35;;;;;;;6.39;100.00;98455.94;4087267;28;20227;-45
2023/12/09 02:01:46;;;;;;;1.80;1.70;;;;;;;6.43;100.00;98451.72;4100982;28;20701;-45
2023/12/09 02:03:50;;;;;;;5.20;1.75;;;;;;;6.41;100.00;98453.81;4095991;28;20208;-45
2023/12/09 02:05:51;;;;;;;12.40;1.60;;;;;;;6.38;100.00;98448.84;4091363;28;20797;-47
2023/12/09 02:07:53;;;;;;;3.08;2.88;;;;;;;6.45;100.00;98455.03;4090733;28;20215;-46
2023/12/09 02:09:55;;;;;;;8.82;5.05;;;;;;;6.43;100.00;98451.72;4097128;28;20238;-48
2023/12/09 02:12:06;;;;;;;2.22;2.08;;;;;;;6.38;100.00;98443.41;4108520;28;20677;-45
2023/12/09 02:14:15;;;;;;;1.92;1.83;;;;;;;6.42;100.00;98434.56;4096123;28;20232;-45
2023/12/09 02:16:24;;;;;;;1.42;1.33;;;;;;;6.37;100.00;98436.31;4105923;28;20717;-46
2023/12/09 02:18:26;;;;;;;2.22;2.15;;;;;;;6.33;100.00;98419.63;4096709;28;20699;-45
2023/12/09 02:20:29;;;;;;;2.85;2.65;;;;;;;6.37;100.00;98414.59;4096005;28;20227;-46
2023/12/09 02:22:31;;;;;;;3.38;3.08;;;;;;;6.34;100.00;98409.59;4095459;28;20207;-45
2023/12/09 02:24:33;;;;;;;2.92;2.33;;;;;;;6.41;100.00;98407.63;4114939;28;20223;-45
2023/12/09 02:26:35;;;;;;;2.65;2.45;;;;;;;6.41;100.00;98402.19;4093015;28;20714;-45
2023/12/09 02:28:39;;;;;;;2.58;2.38;;;;;;;6.34;100.00;98394.13;4079269;29;20209;-45
2023/12/09 02:30:49;;;;;;;1.83;1.67;;;;;;;6.28;100.00;98384.16;4092751;28;20592;-45
2023/12/09 02:32:52;;;;;;;3.05;2.85;;;;;;;6.28;100.00;98388.78;4096319;28;20578;-45
2023/12/09 02:34:55;;;;;;;3.20;2.83;;;;;;;6.36;100.00;98386.56;4095821;28;20235;-45
2023/12/09 02:36:57;;;;;;;4.82;2.28;;;;;;;6.31;100.00;98385.59;4106759;28;20270;-45
2023/12/09 02:38:59;;;;;;;2.00;1.90;;;;;;;6.24;100.00;98377.50;4073162;28;20275;-45
2023/12/09 02:41:01;;;;;;;1.98;1.88;;;;;;;6.32;100.00;98376.38;4073786;29;20250;-47
2023/12/09 02:43:04;;;;;;;4.85;2.58;;;;;;;6.20;100.00;98375.47;4083411;28;20604;-45
2023/12/09 02:45:06;;;;;;;2.60;2.40;;;;;;;6.18;100.00;98381.16;4086956;28;20211;-47
2023/12/09 02:47:14;;;;;;;5.93;2.20;;;;;;;6.18;100.00;98378.44;4093738;28;20239;-44
2023/12/09 02:49:16;;;;;;;1.38;1.27;;;;;;;6.14;100.00;98377.22;4076356;29;20207;-46
2023/12/09 02:51:18;;;;;;;1.60;1.52;;;;;;;6.13;100.00;98378.28;4108034;28;20208;-47
2023/12/09 02:53:19;;;;;;;7.35;2.47;;;;;;;6.10;100.00;98369.75;4078268;29;20270;-45
2023/12/09 02:55:21;;;;;;;1.95;1.85;;;;;;;6.15;100.00;98367.19;4095709;28;20222;-45
2023/12/09 02:57:23;;;;;;;3.35;2.72;;;;;;;6.14;100.00;98376.38;4103539;28;20286;-46
2023/12/09 02:59:27;;;;;;;1.95;1.30;;;;;;;6.07;100.00;98376.44;4100922;28;20226;-45
2023/12/09 03:01:29;;;;;;;1.63;1.52;;;;;;;6.08;100.00;98372.66;4086751;28;20559;-45
2023/12/09 03:03:30;;;;;;;1.27;1.25;;;;;;;6.17;100.00;98370.50;4085108;28;20678;-45
2023/12/09 03:05:32;;;;;;;1.65;1.55;;;;;;;6.19;100.00;98363.78;4086533;28;20392;-46
2023/12/09 03:07:34;;;;;;;3.33;2.55;;;;;;;6.12;100.00;98364.91;4089182;28;20219;-45
2023/12/09 03:09:36;;;;;;;2.55;2.13;;;;;;;6.10;100.00;98362.41;4095600;28;20250;-45
2023/12/09 03:11:37;;;;;;;3.53;3.08;;;;;;;6.11;100.00;98365.97;4097867;28;20666;-44
2023/12/09 03:13:39;;;;;;;1.30;1.30;;;;;;;6.07;100.00;98360.16;4114028;28;20269;-45
2023/12/09 03:15:41;;;;;;;3.67;2.75;;;;;;;6.04;100.00;98354.34;4105965;28;20768;-48
2023/12/09 03:17:42;;;;;;;7.18;1.77;;;;;;;6.17;100.00;98360.44;4107554;28;20210;-44
2023/12/09 03:19:44;;;;;;;3.33;2.28;;;;;;;6.14;100.00;98354.63;4090930;28;20222;-45
2023/12/09 03:21:46;;;;;;;1.23;0.93;;;;;;;6.05;100.00;98356.00;4115449;28;20712;-44
2023/12/09 03:23:48;;;;;;;2.75;2.17;;;;;;;6.02;100.00;98359.19;4096481;28;20639;-45
2023/12/09 03:25:50;;;;;;;1.55;1.45;;;;;;;6.01;100.00;98354.78;4096247;28;20232;-45
2023/12/09 03:27:51;;;;;;;1.10;1.10;;;;;;;6.01;100.00;98360.22;4098222;28;20207;-47
2023/12/09 03:29:53;;;;;;;2.05;1.73;;;;;;;6.02;100.00;98345.59;4111422;28;20206;-45
2023/12/09 03:31:55;;;;;;;2.28;2.15;;;;;;;6.03;100.00;98344.53;4073426;29;20802;-45
2023/12/09 03:33:56;;;;;;;7.15;1.95;;;;;;;6.11;100.00;98355.09;4090007;28;20298;-44
2023/12/09 03:35:58;;;;;;;1.00;1.00;;;;;;;6.12;100.00;98352.16;4112125;28;20316;-48
2023/12/09 03:38:00;;;;;;;2.72;1.65;;;;;;;6.07;100.00;98353.88;4106920;28;20576;-45
2023/12/09 03:40:03;;;;;;;2.72;2.28;;;;;;;6.08;100.00;98366.44;4096734;28;20234;-45
2023/12/09 03:42:05;;;;;;;2.30;1.55;;;;;;;6.06;100.00;98369.38;4113337;28;20210;-45
2023/12/09 03:44:07;;;;;;;1.95;1.77;;;;;;;6.05;100.00;98372.28;4109438;28;20681;-46
2023/12/09 03:46:09;;;;;;;1.45;1.35;;;;;;;6.15;100.00;98375.34;4098822;28;20239;-46
2023/12/09 03:48:10;;;;;;;2.83;2.38;;;;;;;6.08;100.00;98371.88;4110069;28;20230;-45
2023/12/09 03:50:13;;;;;;;2.05;1.35;;;;;;;6.04;100.00;98376.88;4090074;28;20211;-46
2023/12/09 03:52:14;;;;;;;2.00;1.13;;;;;;;6.13;100.00;98363.84;4070845;29;20213;-45
2023/12/09 03:54:19;;;;;;;1.45;1.35;;;;;;;6.10;100.00;98372.47;4113287;28;20723;-45
2023/12/09 03:56:21;;;;;;;1.75;1.70;;;;;;;6.09;100.00;98362.66;4113398;28;20234;-45
2023/12/09 03:58:23;;;;;;;1.17;1.15;;;;;;;6.04;100.00;98370.63;4098856;28;20686;-45
2023/12/09 04:00:25;;;;;;;2.20;1.77;;;;;;;6.09;100.00;98357.22;4097182;28;20236;-45
2023/12/09 04:02:27;;;;;;;3.63;1.42;;;;;;;6.05;100.00;98356.00;4095176;28;20223;-45
2023/12/09 04:04:29;;;;;;;6.75;1.80;;;;;;;6.01;100.00;98371.06;4090043;28;20216;-46
2023/12/09 04:06:32;;;;;;;1.25;1.15;;;;;;;6.16;100.00;98339.78;4098590;28;20231;-44
2023/12/09 04:08:34;;;;;;;2.10;1.92;;;;;;;6.04;100.00;98359.78;4097782;28;20219;-45
2023/12/09 04:10:35;;;;;;;1.15;1.15;;;;;;;6.04;100.00;98354.34;4089895;28;20208;-45
2023/12/09 04:12:37;;;;;;;2.72;1.08;;;;;;;6.10;100.00;98353.44;4094280;28;20207;-45
2023/12/09 04:14:39;;;;;;;2.38;1.65;;;;;;;6.03;100.00;98368.97;4100463;28;20214;-44
2023/12/09 04:16:44;;;;;;;1.90;1.83;;;;;;;6.01;100.00;98352.06;4098473;28;20234;-45
2023/12/09 04:18:45;;;;;;;1.10;1.10;;;;;;;6.01;100.00;98358.34;4095277;28;21095;-45
2023/12/09 04:20:47;;;;;;;2.20;1.75;;;;;;;6.05;100.00;98353.28;4098382;28;20258;-45
2023/12/09 04:22:49;;;;;;;1.25;1.25;;;;;;;6.08;100.00;98345.50;4092686;28;20219;-45
2023/12/09 04:24:50;;;;;;;2.67;1.60;;;;;;;6.08;100.00;98344.69;4092450;28;20230;-46
2023/12/09 04:26:52;;;;;;;1.52;1.30;;;;;;;6.17;100.00;98354.19;4098018;28;20290;-45
2023/12/09 04:28:54;;;;;;;1.90;1.80;;;;;;;6.15;100.00;98350.88;4096037;28;20278;-46
2023/12/09 04:30:56;;;;;;;1.23;1.23;;;;;;;6.16;100.00;98341.69;4099453;28;20212;-44
2023/12/09 04:32:58;;;;;;;1.02;1.02;;;;;;;6.10;100.00;98358.88;4108255;28;20346;-44
2023/12/09 04:34:59;;;;;;;1.75;1.13;;;;;;;6.07;100.00;98348.44;4094511;28;20712;-45
2023/12/09 04:37:01;;;;;;;3.25;1.30;;;;;;;6.10;100.00;98342.59;4112959;28;20285;-45
2023/12/09 04:39:03;;;;;;;1.45;1.42;;;;;;;6.10;100.00;98348.00;4086168;28;20604;-45
2023/12/09 04:41:05;;;;;;;8.00;2.95;;;;;;;6.03;100.00;98337.19;4084816;28;20232;-46
2023/12/09 04:43:07;;;;;;;1.60;0.93;;;;;;;6.06;100.00;98330.50;4091936;28;20215;-45
2023/12/09 04:45:10;;;;;;;6.72;1.33;;;;;;;6.18;100.00;98328.69;4090491;28;20724;-44
2023/12/09 04:47:12;;;;;;;4.85;1.88;;;;;;;6.13;100.00;98326.66;4095977;28;20243;-44
2023/12/09 04:49:13;;;;;;;1.17;1.10;;;;;;;6.10;100.00;98307.28;4105189;28;20697;-45
2023/12/09 04:51:16;;;;;;;9.27;1.55;;;;;;;6.16;100.00;98320.75;4104772;28;20214;-46
2023/12/09 04:53:18;;;;;;;5.13;1.75;;;;;;;6.12;100.00;98318.72;4106020;28;20211;-45
2023/12/09 04:55:20;;;;;;;1.48;1.38;;;;;;;6.17;100.00;98313.44;4090313;28;20214;-45
2023/12/09 04:57:23;;;;;;;4.88;2.70;;;;;;;6.19;100.00;98314.03;4092574;28;20235;-44
2023/12/09 04:59:25;;;;;;;2.10;1.88;;;;;;;6.26;100.00;98306.66;4094838;28;20298;-45
2023/12/09 05:01:26;;;;;;;6.18;1.42;;;;;;;6.16;100.00;98293.59;4098589;28;20236;-44
2023/12/09 05:03:30;;;;;;;5.72;1.52;;;;;;;6.13;100.00;98302.22;4113306;28;20744;-45
2023/12/09 05:05:32;;;;;;;1.90;1.80;;;;;;;6.23;100.00;98309.84;4090135;28;20745;-45
2023/12/09 05:07:33;;;;;;;2.33;2.22;;;;;;;6.16;100.00;98303.66;4095342;28;20225;-44
2023/12/09 05:09:35;;;;;;;7.40;2.42;;;;;;;6.17;100.00;98305.31;4075434;29;20276;-47
2023/12/09 05:11:37;;;;;;;1.60;1.50;;;;;;;6.23;100.00;98298.97;4079775;29;20212;-44
2023/12/09 05:13:38;;;;;;;2.25;2.00;;;;;;;6.23;100.00;98299.78;4098170;28;20211;-45
2023/12/09 05:15:40;;;;;;;2.33;2.13;;;;;;;6.30;100.00;98294.28;4090014;28;20837;-45
2023/12/09 05:17:42;;;;;;;10.07;3.10;;;;;;;6.22;100.00;98292.69;4089952;28;20219;-46
2023/12/09 05:19:44;;;;;;;10.43;2.22;;;;;;;6.29;100.00;98287.19;4090495;28;20606;-45
2023/12/09 05:21:46;;;;;;;9.23;2.80;;;;;;;6.27;100.00;98281.13;4062063;29;20228;-45
2023/12/09 05:23:48;;;;;;;1.83;1.73;;;;;;;6.27;100.00;98283.84;4106076;28;20349;-45
2023/12/09 05:25:50;;;;;;;1.90;1.80;;;;;;;6.32;100.00;98273.13;4073689;29;20240;-44
2023/12/09 05:27:51;;;;;;;3.95;2.90;;;;;;;6.34;100.00;98279.16;4091787;28;20219;-46
2023/12/09 05:29:53;;;;;;;6.07;2.92;;;;;;;6.31;100.00;98271.47;4089062;28;20398;-45
2023/12/09 05:31:55;;;;;;;2.40;2.20;;;;;;;6.34;100.00;98266.41;4091298;28;20555;-46
2023/12/09 05:33:56;;;;;;;4.90;3.45;;;;;;;6.34;100.00;98260.97;4089129;28;20212;-45
2023/12/09 05:35:58;;;;;;;8.48;2.63;;;;;;;6.41;100.00;98267.16;4089038;28;20239;-44
2023/12/09 05:38:00;;;;;;;5.93;2.40;;;;;;;6.37;100.00;98262.41;4090528;28;20227;-45
2023/12/09 05:40:03;;;;;;;1.92;1.75;;;;;;;6.33;100.00;98250.34;4089356;28;20251;-45
2023/12/09 05:42:05;;;;;;;3.58;2.92;;;;;;;6.33;100.00;98256.59;4083337;28;20250;-46
2023/12/09 05:44:07;;;;;;;2.85;1.88;;;;;;;6.34;100.00;98252.81;4088198;28;20258;-45
2023/12/09 05:46:17;;;;;;;1.88;1.75;;;;;;;6.44;100.00;98264.00;4073044;29;20232;-46
2023/12/09 05:48:20;;;;;;;3.35;3.05;;;;;;;6.42;100.00;98255.22;4089752;28;20354;-45
2023/12/09 05:50:22;;;;;;;7.90;1.88;;;;;;;6.45;100.00;98260.22;4087300;28;20226;-46
2023/12/09 05:52:24;;;;;;;2.08;1.85;;;;;;;6.39;100.00;98249.41;4088307;28;20215;-45
2023/12/09 05:54:26;;;;;;;4.43;3.30;;;;;;;6.44;100.00;98242.25;4101062;28;20207;-45
2023/12/09 05:56:28;;;;;;;3.08;2.80;;;;;;;6.39;100.00;98254.84;4092423;28;20309;-45
2023/12/09 05:58:30;;;;;;;2.28;2.08;;;;;;;6.41;100.00;98256.28;4105510;28;20772;-45
2023/12/09 06:00:32;;;;;;;2.92;2.55;;;;;;;6.46;100.00;98255.59;4104693;28;20746;-49
2023/12/09 06:02:39;;;;;;;1.77;1.67;;;;;;;6.45;100.00;98243.06;4090598;28;20261;-45
2023/12/09 06:04:41;;;;;;;3.33;3.08;;;;;;;6.57;100.00;98243.94;4089419;28;20274;-45
2023/12/09 06:06:43;;;;;;;3.10;2.63;;;;;;;6.49;100.00;98252.44;4096707;28;20762;-45
2023/12/09 06:08:45;;;;;;;2.08;1.95;;;;;;;6.53;100.00;98245.44;4099044;28;20215;-45
2023/12/09 06:10:47;;;;;;;4.28;3.00;;;;;;;6.48;100.00;98248.06;4094454;28;20853;-46
2023/12/09 06:12:49;;;;;;;2.85;2.70;;;;;;;6.41;100.00;98247.28;4080355;29;20216;-45
2023/12/09 06:14:51;;;;;;;2.55;2.45;;;;;;;6.48;100.00;98258.94;4096701;28;20607;-45
2023/12/09 06:16:53;;;;;;;9.07;1.65;;;;;;;6.44;100.00;98257.72;4080019;28;20287;-46
2023/12/09 06:18:55;;;;;;;4.68;2.50;;;;;;;6.46;100.00;98252.88;4093018;28;20234;-45
2023/12/09 06:20:57;;;;;;;1.98;1.85;;;;;;;6.45;100.00;98252.06;4100330;28;20234;-45
2023/12/09 06:22:59;;;;;;;2.10;2.00;;;;;;;6.50;100.00;98251.38;4095047;28;20298;-44
2023/12/09 06:25:01;;;;;;;2.88;2.38;;;;;;;6.53;100.00;98259.88;4094729;28;20220;-46
2023/12/09 06:27:04;;;;;;;2.97;2.47;;;;;;;6.59;100.00;98244.53;4097302;28;20227;-44
2023/12/09 06:29:05;;;;;;;3.10;2.80;;;;;;;6.55;100.00;98243.34;4109777;28;20644;-44
2023/12/09 06:31:07;;;;;;;3.97;1.92;;;;;;;6.55;100.00;98244.16;4096539;28;20748;-44
2023/12/09 06:33:09;;;;;;;3.33;3.13;;;;;;;6.54;100.00;98237.06;4106448;28;20211;-46
2023/12/09 06:35:11;;;;;;;1.42;1.33;;;;;;;6.56;100.00;98229.50;4090051;28;20223;-44
2023/12/09 06:37:13;;;;;;;3.00;2.80;;;;;;;6.57;100.00;98230.34;4089453;28;20361;-45
2023/12/09 06:39:14;;;;;;;5.78;1.88;;;;;;;6.58;100.00;98226.56;4089545;28;20246;-45
2023/12/09 06:41:16;;;;;;;1.77;1.67;;;;;;;6.56;100.00;98234.94;4090289;28;20811;-44
2023/12/09 06:43:18;;;;;;;7.45;2.97;;;;;;;6.58;100.00;98242.88;4093872;28;20210;-45
2023/12/09 06:45:19;;;;;;;4.90;4.05;;;;;;;6.62;100.00;98249.53;4094230;28;20287;-45
2023/12/09 06:47:21;;;;;;;3.55;1.92;;;;;;;6.56;100.00;98237.66;4093088;28;20293;-45
2023/12/09 06:49:23;;;;;;;1.98;1.88;;;;;;;6.65;100.00;98240.88;4093020;28;20681;-45
2023/12/09 06:51:25;;;;;;;2.17;2.08;;;;;;;6.59;100.00;98244.53;4090595;28;20230;-45
2023/12/09 06:53:27;;;;;;;3.45;2.42;;;;;;;6.58;100.00;98242.88;4092498;28;20299;-46
2023/12/09 06:55:28;;;;;;;4.95;2.33;;;;;;;6.55;100.00;98248.78;4094718;28;20290;-45
2023/12/09 06:57:30;;;;;;;2.15;2.05;;;;;;;6.66;100.00;98250.69;4107213;28;20260;-45
2023/12/09 06:59:32;;;;;;;7.53;2.58;;;;;;;6.63;100.00;98251.97;4100062;28;20207;-46
2023/12/09 07:01:33;;;;;;;3.13;2.20;;;;;;;6.58;100.00;98245.59;4101218;28;20734;-45
2023/12/09 07:03:37;;;;;;;5.80;2.17;;;;;;;6.58;100.00;98245.59;4111315;28;20766;-46
2023/12/09 07:05:39;;;;;;;2.60;2.40;;;;;;;6.57;100.00;98246.66;4110629;28;20715;-46
2023/12/09 07:07:41;;;;;;;3.17;2.60;;;;;;;6.53;100.00;98245.44;4100410;28;20265;-46
2023/12/09 07:09:43;;;;;;;2.88;1.70;;;;;;;6.57;100.00;98241.22;4101271;28;20215;-45
2023/12/09 07:11:45;;;;;;;3.20;2.97;;;;;;;6.58;100.00;98248.31;4111791;28;20243;-45
2023/12/09 07:13:47;;;;;;;1.90;1.80;;;;;;;6.51;100.00;98255.72;4096939;28;20211;-45
2023/12/09 07:15:48;;;;;;;2.42;2.08;;;;;;;6.58;100.00;98251.88;4094704;28;20319;-45
2023/12/09 07:17:50;;;;;;;2.65;2.28;;;;;;;6.56;100.00;98253.16;4100716;28;20665;-45
2023/12/09 07:19:52;;;;;;;3.17;2.30;;;;;;;6.62;100.00;98254.97;4097273;28;20219;-46
2023/12/09 07:21:54;;;;;;;2.40;2.22;;;;;;;6.64;100.00;98258.25;4110468;28;20231;-45
2023/12/09 07:23:56;;;;;;;2.22;1.85;;;;;;;6.57;100.00;98257.53;4097945;28;20206;-45
2023/12/09 07:25:59;;;;;;;2.53;2.33;;;;;;;6.60;100.00;98248.91;4107421;28;20231;-45
2023/12/09 07:28:01;;;;;;;2.42;2.30;;;;;;;6.62;100.00;98257.69;4098217;28;20218;-45
2023/12/09 07:30:03;;;;;;;2.22;1.98;;;;;;;6.63;100.00;98243.03;4098796;28;20215;-46
2023/12/09 07:32:05;;;;;;;1.67;1.58;;;;;;;6.65;100.00;98240.88;4092823;28;20207;-45
2023/12/09 07:34:07;;;;;;;2.83;2.53;;;;;;;6.64;100.00;98250.09;4100296;28;20219;-45
2023/12/09 07:36:09;;;;;;;3.33;2.30;;;;;;;6.62;100.00;98255.78;4095919;28;20261;-45
2023/12/09 07:38:11;;;;;;;2.38;2.17;;;;;;;6.53;100.00;98250.88;4098293;28;20261;-46
2023/12/09 07:40:13;;;;;;;4.38;2.42;;;;;;;6.55;100.00;98254.22;4095579;28;20207;-46
2023/12/09 07:42:15;;;;;;;4.00;2.42;;;;;;;6.54;100.00;98247.09;4097028;28;20269;-45
2023/12/09 07:44:20;;;;;;;2.33;2.00;;;;;;;6.57;100.00;98235.78;4101459;28;20728;-45
2023/12/09 07:46:22;;;;;;;2.67;1.70;;;;;;;6.50;100.00;98237.78;4091740;28;20227;-45
2023/12/09 07:48:23;;;;;;;1.20;1.20;;;;;;;6.58;100.00;98249.16;4085877;28;20295;-45
2023/12/09 07:50:25;;;;;;;10.38;2.78;;;;;;;6.59;100.00;98245.38;4087236;28;20579;-47
2023/12/09 07:52:27;;;;;;;1.70;1.60;;;;;;;6.58;100.00;98242.88;4095726;28;20548;-44
2023/12/09 07:54:29;;;;;;;4.15;1.42;;;;;;;6.59;100.00;98233.66;4116504;28;20220;-44
2023/12/09 07:56:31;;;;;;;2.10;1.98;;;;;;;6.59;100.00;98217.34;4108325;28;20242;-46
2023/12/09 07:58:32;;;;;;;1.92;1.77;;;;;;;6.59;100.00;98210.03;4114052;28;20623;-45
2023/12/09 08:00:35;;;;;;;1.50;1.40;;;;;;;6.63;100.00;98196.81;4081279;29;20221;-46
2023/12/09 08:02:37;;;;;;;13.18;2.58;;;;;;;6.57;100.00;98203.16;4097580;28;20258;-45
2023/12/09 08:04:38;;;;;;;1.60;1.50;;;;;;;6.63;100.00;98197.63;4098497;28;20214;-45
2023/12/09 08:06:41;;;;;;;2.67;2.22;;;;;;;6.59;100.00;98196.44;4099584;28;20286;-47
2023/12/09 08:08:42;;;;;;;2.03;1.92;;;;;;;6.61;100.00;98198.91;4094838;28;20271;-45
2023/12/09 08:10:44;;;;;;;2.25;2.10;;;;;;;6.64;100.00;98214.78;4095746;28;20207;-45
2023/12/09 08:12:46;;;;;;;1.15;1.15;;;;;;;6.64;100.00;98203.91;4094909;28;20203;-44
2023/12/09 08:14:48;;;;;;;1.83;1.67;;;;;;;6.64;100.00;98204.75;4094268;28;20282;-45
2023/12/09 08:16:49;;;;;;;2.47;2.38;;;;;;;6.69;100.00;98206.75;4096140;28;20760;-45
2023/12/09 08:18:51;;;;;;;1.27;1.17;;;;;;;6.72;100.00;98206.28;4099643;28;20207;-46
2023/12/09 08:20:54;;;;;;;5.85;3.17;;;;;;;6.72;100.00;98196.25;4095573;28;20207;-46
2023/12/09 08:22:56;;;;;;;3.97;2.80;;;;;;;6.72;100.00;98200.84;4098269;28;20215;-44
2023/12/09 08:24:58;;;;;;;7.68;2.80;;;;;;;6.74;100.00;98204.13;4099211;28;20270;-44
2023/12/09 08:26:59;;;;;;;1.17;1.17;;;;;;;6.74;100.00;98204.97;4089843;28;20243;-45
2023/12/09 08:29:03;;;;;;;2.17;2.08;;;;;;;6.80;100.00;98197.78;4111503;28;20222;-46
2023/12/09 08:31:06;;;;;;;1.50;1.40;;;;;;;6.77;100.00;98190.09;4116791;28;20222;-44
2023/12/09 08:33:08;;;;;;;6.38;2.08;;;;;;;6.83;100.00;98186.44;4105229;28;20266;-45
2023/12/09 08:35:11;;;;;;;5.45;2.53;;;;;;;6.85;100.00;98178.88;4091792;28;20253;-44
2023/12/09 08:37:13;;;;;;;18.92;2.28;;;;;;;6.86;100.00;98164.19;4112766;28;20230;-45
2023/12/09 08:39:17;;;;;;;1.92;1.83;;;;;;;6.83;100.00;98159.25;4090151;28;20241;-45
2023/12/09 08:41:19;;;;;;;2.95;2.67;;;;;;;6.79;100.00;98152.63;4088104;28;20334;-46
2023/12/09 08:43:21;;;;;;;3.33;1.70;;;;;;;6.82;100.00;98163.03;4101797;28;20210;-44
2023/12/09 08:45:23;;;;;;;1.02;1.00;;;;;;;6.79;100.00;98158.91;4107619;28;20214;-44
2023/12/09 08:47:24;;;;;;;2.20;1.55;;;;;;;6.81;100.00;98169.50;4112492;28;20214;-45
2023/12/09 08:49:28;;;;;;;11.50;3.15;;;;;;;6.83;100.00;98161.97;4094108;28;20705;-44
2023/12/09 08:51:30;;;;;;;6.07;3.28;;;;;;;6.84;100.00;98160.91;4099883;28;20207;-44
2023/12/09 08:53:31;;;;;;;2.00;1.80;;;;;;;6.80;100.00;98165.13;4099819;28;20274;-45
2023/12/09 08:55:33;;;;;;;2.67;2.58;;;;;;;6.78;100.00;98151.81;4110311;28;20207;-44
2023/12/09 08:57:35;;;;;;;2.50;2.30;;;;;;;6.77;100.00;98138.44;4097876;28;20270;-44
2023/12/09 08:59:37;;;;;;;2.85;2.65;;;;;;;6.75;100.00;98141.38;4112598;28;20205;-47
2023/12/09 09:01:38;;;;;;;3.20;2.92;;;;;;;6.79;100.00;98134.41;4115142;28;20225;-46
2023/12/09 09:03:40;;;;;;;4.68;2.72;;;;;;;6.77;100.00;98131.09;4092310;28;20239;-45
2023/12/09 09:05:42;;;;;;;1.50;1.40;;;;;;;6.79;100.00;98125.44;4093785;28;20203;-47
2023/12/09 09:07:44;;;;;;;1.17;1.08;;;;;;;6.81;100.00;98135.00;4094388;28;20940;-46
2023/12/09 09:09:46;;;;;;;5.20;2.00;;;;;;;6.85;100.00;98119.03;4110227;28;20624;-45
2023/12/09 09:11:48;;;;;;;1.40;1.38;;;;;;;6.81;100.00;98123.28;4068208;29;20219;-44
2023/12/09 09:13:49;;;;;;;1.48;1.38;;;;;;;6.78;100.00;98126.50;4088433;28;20218;-45
2023/12/09 09:15:51;;;;;;;5.03;1.17;;;;;;;6.75;100.00;98126.97;4092159;28;20599;-45
2023/12/09 09:17:53;;;;;;;1.42;1.33;;;;;;;6.77;100.00;98122.94;4105191;28;20253;-44
2023/12/09 09:19:55;;;;;;;1.15;1.10;;;;;;;6.73;100.00;98127.19;4095599;28;20324;-44
2023/12/09 09:21:57;;;;;;;2.55;2.45;;;;;;;6.78;100.00;98123.78;4110220;28;20760;-45
2023/12/09 09:23:59;;;;;;;1.10;1.10;;;;;;;6.75;100.00;98125.06;4095094;28;20740;-44
2023/12/09 09:26:01;;;;;;;1.83;1.73;;;;;;;6.73;100.00;98126.34;4092951;28;20660;-44
2023/12/09 09:28:03;;;;;;;1.85;1.75;;;;;;;6.73;100.00;98127.19;4096234;28;20219;-45
2023/12/09 09:30:06;;;;;;;2.47;2.28;;;;;;;6.79;100.00;98130.88;4105413;28;20286;-45
2023/12/09 09:32:07;;;;;;;4.82;1.40;;;;;;;6.84;100.00;98123.69;4091280;28;20208;-45
2023/12/09 09:34:09;;;;;;;2.67;1.40;;;;;;;6.84;100.00;98131.00;4089612;28;20217;-45
2023/12/09 09:36:11;;;;;;;3.83;2.40;;;;;;;6.77;100.00;98116.69;4095655;28;20669;-45